createdAt,value
2022-12-12T00:01:22.232Z,16.00
2022-12-12T00:03:49.424Z,16.58
2022-12-12T00:06:16.759Z,16.27
2022-12-12T00:08:45.475Z,13.15
2022-12-12T00:11:13.402Z,15.32
2022-12-12T00:13:40.680Z,16.02
2022-12-12T00:16:09.035Z,17.05
2022-12-12T00:18:39.555Z,14.80
2022-12-12T00:21:08.597Z,17.08
2022-12-12T00:23:35.653Z,16.13
2022-12-12T00:26:06.842Z,14.60
2022-12-12T00:28:34.074Z,15.07
2022-12-12T00:31:01.227Z,16.90
2022-12-12T00:33:28.551Z,15.30
2022-12-12T00:35:55.965Z,17.77
2022-12-12T00:38:23.924Z,14.38
2022-12-12T00:40:55.703Z,18.95
2022-12-12T00:43:24.532Z,19.88
2022-12-12T00:45:51.870Z,16.27
2022-12-12T00:48:19.630Z,19.42
2022-12-12T00:50:47.169Z,14.80
2022-12-12T00:53:14.285Z,18.05
2022-12-12T00:55:41.273Z,18.38
2022-12-12T00:58:08.256Z,19.90
2022-12-12T01:00:36.730Z,16.50
2022-12-12T01:03:03.921Z,18.05
2022-12-12T01:05:31.166Z,16.55
2022-12-12T01:07:58.921Z,17.45
2022-12-12T01:10:25.941Z,16.55
2022-12-12T01:12:52.897Z,17.50
2022-12-12T01:15:20.521Z,15.95
2022-12-12T01:17:48.993Z,16.48
2022-12-12T01:20:19.216Z,17.08
2022-12-12T01:22:46.404Z,16.67
2022-12-12T01:25:15.193Z,17.33
2022-12-12T01:27:42.709Z,18.98
2022-12-12T01:30:12.548Z,22.75
2022-12-12T01:32:39.497Z,23.20
2022-12-12T01:35:08.717Z,19.98
2022-12-12T01:37:36.092Z,22.23
2022-12-12T01:40:05.553Z,20.92
2022-12-12T01:42:32.714Z,23.45
2022-12-12T01:45:01.470Z,20.23
2022-12-12T01:47:28.461Z,22.30
2022-12-12T01:49:58.656Z,20.50
2022-12-12T01:52:29.309Z,25.00
2022-12-12T01:55:00.355Z,22.00
2022-12-12T01:57:32.728Z,21.27
2022-12-12T02:00:01.005Z,18.15
2022-12-12T02:02:29.298Z,19.88
2022-12-12T02:04:57.391Z,18.17
2022-12-12T02:07:24.289Z,19.83
2022-12-12T02:09:53.044Z,21.10
2022-12-12T02:12:20.051Z,20.92
2022-12-12T02:14:49.560Z,19.80
2022-12-12T02:17:43.094Z,19.88
2022-12-12T02:20:43.638Z,18.42
2022-12-12T02:23:52.785Z,17.55
2022-12-12T02:26:59.803Z,16.90
2022-12-12T02:30:02.114Z,13.10
2022-12-12T02:32:42.878Z,13.77
2022-12-12T02:35:19.354Z,16.02
2022-12-12T02:37:57.076Z,15.25
2022-12-12T02:40:29.621Z,15.60
2022-12-12T02:43:03.474Z,20.70
2022-12-12T02:45:36.367Z,16.40
2022-12-12T02:48:11.201Z,18.98
2022-12-12T02:50:39.985Z,19.17
2022-12-12T02:53:07.068Z,19.33
2022-12-12T02:55:36.569Z,17.50
2022-12-12T02:58:05.118Z,22.15
2022-12-12T03:00:39.142Z,17.65
2022-12-12T03:03:39.719Z,19.20
2022-12-12T03:06:41.306Z,18.27
2022-12-12T03:09:21.689Z,19.58
2022-12-12T03:12:02.941Z,19.83
2022-12-12T03:14:38.867Z,20.80
2022-12-12T03:17:10.939Z,21.92
2022-12-12T03:19:43.434Z,23.27
2022-12-12T03:22:20.418Z,18.10
2022-12-12T03:24:52.197Z,21.38
2022-12-12T03:27:26.148Z,18.27
2022-12-12T03:29:57.066Z,19.10
2022-12-12T03:32:29.636Z,18.17
2022-12-12T03:35:03.272Z,18.73
2022-12-12T03:37:33.971Z,20.42
2022-12-12T03:40:05.785Z,20.15
2022-12-12T03:42:38.982Z,19.48
2022-12-12T03:45:10.937Z,19.55
2022-12-12T03:47:48.021Z,16.65
2022-12-12T03:50:19.871Z,19.85
2022-12-12T03:52:51.368Z,19.70
2022-12-12T03:55:23.844Z,18.63
2022-12-12T03:57:57.750Z,15.88
2022-12-12T04:00:27.157Z,15.57
2022-12-12T04:02:59.775Z,20.05
2022-12-12T04:05:35.918Z,17.73
2022-12-12T04:08:08.016Z,20.55
2022-12-12T04:11:00.596Z,19.35
2022-12-12T04:13:33.054Z,17.50
2022-12-12T04:16:04.143Z,16.58
2022-12-12T04:18:38.611Z,16.88
2022-12-12T04:21:36.341Z,15.73
2022-12-12T04:24:14.195Z,18.85
2022-12-12T04:26:46.152Z,15.15
2022-12-12T04:29:29.012Z,15.02
2022-12-12T04:32:01.412Z,16.60
2022-12-12T04:34:37.070Z,16.30
2022-12-12T04:37:06.877Z,15.63
2022-12-12T04:39:35.713Z,17.60
2022-12-12T04:42:06.838Z,16.77
2022-12-12T04:44:37.008Z,19.52
2022-12-12T04:47:06.065Z,18.05
2022-12-12T04:49:35.772Z,18.50
2022-12-12T04:52:06.794Z,17.92
2022-12-12T04:54:41.349Z,16.00
2022-12-12T04:57:12.064Z,18.88
2022-12-12T04:59:39.289Z,22.88
2022-12-12T05:02:14.317Z,20.13
2022-12-12T05:04:49.750Z,18.98
2022-12-12T05:09:48.694Z,19.05
2022-12-12T05:12:18.324Z,16.65
2022-12-12T05:14:45.369Z,18.90
2022-12-12T05:17:17.132Z,21.52
2022-12-12T05:19:44.076Z,17.85
2022-12-12T05:22:11.505Z,18.98
2022-12-12T05:24:39.848Z,20.15
2022-12-12T05:27:06.806Z,19.98
2022-12-12T05:29:34.095Z,15.98
2022-12-12T05:32:01.449Z,17.73
2022-12-12T05:34:28.473Z,19.88
2022-12-12T05:36:55.584Z,21.60
2022-12-12T05:39:22.616Z,20.15
2022-12-12T05:41:51.049Z,20.15
2022-12-12T05:44:17.982Z,22.13
2022-12-12T05:46:45.805Z,19.45
2022-12-12T05:49:12.733Z,32.33
2022-12-12T05:51:39.933Z,22.13
2022-12-12T05:54:07.140Z,19.05
2022-12-12T05:56:34.048Z,21.15
2022-12-12T05:59:02.545Z,19.10
2022-12-12T06:01:29.515Z,22.23
2022-12-12T06:03:56.727Z,18.80
2022-12-12T06:06:23.765Z,20.00
2022-12-12T06:08:51.673Z,17.48
2022-12-12T06:11:18.817Z,23.15
2022-12-12T06:13:46.079Z,16.70
2022-12-12T06:16:16.055Z,16.98
2022-12-12T06:18:43.565Z,21.67
2022-12-12T06:21:11.989Z,20.77
2022-12-12T06:23:40.361Z,22.02
2022-12-12T06:26:08.429Z,18.80
2022-12-12T06:28:35.419Z,21.30
2022-12-12T06:31:06.838Z,17.40
2022-12-12T06:33:40.082Z,17.80
2022-12-12T06:36:08.798Z,19.00
2022-12-12T06:38:36.335Z,18.10
2022-12-12T06:41:07.066Z,20.70
2022-12-12T06:43:34.069Z,15.70
2022-12-12T06:46:02.140Z,17.13
2022-12-12T06:48:29.907Z,14.32
2022-12-12T06:50:58.847Z,15.68
2022-12-12T06:53:25.900Z,19.58
2022-12-12T06:55:52.834Z,17.25
2022-12-12T06:58:19.820Z,15.45
2022-12-12T07:00:51.288Z,19.30
2022-12-12T07:03:18.681Z,20.90
2022-12-12T07:05:46.553Z,19.05
2022-12-12T07:08:15.715Z,18.45
2022-12-12T07:10:44.149Z,20.80
2022-12-12T07:13:11.440Z,20.83
2022-12-12T07:15:43.409Z,22.27
2022-12-12T07:18:10.735Z,23.48
2022-12-12T07:20:39.406Z,24.33
2022-12-12T07:23:06.569Z,23.65
2022-12-12T07:25:37.553Z,22.80
2022-12-12T07:28:04.545Z,22.65
2022-12-12T07:30:31.593Z,21.38
2022-12-12T07:32:58.581Z,20.48
2022-12-12T07:35:25.752Z,18.52
2022-12-12T07:37:52.722Z,19.13
2022-12-12T07:40:19.755Z,17.75
2022-12-12T07:42:49.001Z,19.13
2022-12-12T07:45:18.441Z,19.40
2022-12-12T07:47:46.132Z,19.23
2022-12-12T07:50:13.707Z,18.30
2022-12-12T07:52:40.644Z,19.27
2022-12-12T07:55:08.329Z,18.95
2022-12-12T07:57:35.304Z,19.40
2022-12-12T08:00:04.585Z,20.25
2022-12-12T08:02:39.122Z,20.33
2022-12-12T08:05:07.433Z,20.45
2022-12-12T08:07:34.517Z,17.67
2022-12-12T08:10:01.514Z,20.88
2022-12-12T08:12:29.520Z,20.65
2022-12-12T08:14:56.469Z,20.48
2022-12-12T08:17:24.865Z,21.83
2022-12-12T08:19:52.061Z,20.45
2022-12-12T08:22:19.164Z,20.58
2022-12-12T08:24:48.240Z,19.23
2022-12-12T08:27:16.016Z,19.33
2022-12-12T08:29:43.479Z,19.98
2022-12-12T08:32:10.715Z,17.33
2022-12-12T08:34:39.139Z,14.43
2022-12-12T08:37:06.349Z,14.68
2022-12-12T08:39:38.137Z,14.75
2022-12-12T08:42:05.221Z,16.45
2022-12-12T08:44:32.290Z,14.10
2022-12-12T08:47:02.099Z,14.60
2022-12-12T08:49:29.084Z,12.10
2022-12-12T08:51:58.268Z,15.60
2022-12-12T08:54:26.034Z,14.85
2022-12-12T08:56:52.940Z,13.77
2022-12-12T08:59:21.180Z,14.65
2022-12-12T09:01:48.267Z,14.50
2022-12-12T09:04:15.365Z,16.70
2022-12-12T09:06:45.785Z,17.08
2022-12-12T09:09:14.080Z,12.50
2022-12-12T09:11:41.025Z,16.67
2022-12-12T09:14:07.980Z,14.35
2022-12-12T09:16:35.103Z,15.15
2022-12-12T09:19:02.208Z,14.75
2022-12-12T09:21:29.138Z,14.90
2022-12-12T09:23:56.088Z,15.70
2022-12-12T09:26:24.543Z,14.07
2022-12-12T09:28:51.696Z,15.57
2022-12-12T09:31:19.048Z,11.02
2022-12-12T09:33:46.085Z,9.35
2022-12-12T09:36:15.149Z,10.27
2022-12-12T09:38:43.014Z,8.57
2022-12-12T09:41:16.167Z,9.50
2022-12-12T09:43:53.376Z,8.82
2022-12-12T09:46:43.825Z,8.30
2022-12-12T09:49:16.672Z,10.80
2022-12-12T09:51:47.286Z,8.50
2022-12-12T09:54:16.580Z,8.43
2022-12-12T09:56:53.477Z,8.25
2022-12-12T09:59:30.583Z,9.70
2022-12-12T10:02:05.731Z,9.80
2022-12-12T10:04:39.697Z,10.27
2022-12-12T10:07:14.307Z,9.32
2022-12-12T10:09:53.076Z,10.15
2022-12-12T10:12:23.095Z,7.65
2022-12-12T10:14:56.165Z,19.20
2022-12-12T10:17:29.434Z,10.75
2022-12-12T10:20:01.032Z,16.25
2022-12-12T10:22:35.050Z,10.10
2022-12-12T10:25:11.531Z,8.05
2022-12-12T10:27:38.441Z,10.05
2022-12-12T10:30:16.053Z,8.90
2022-12-12T10:32:57.778Z,9.30
2022-12-12T10:35:32.130Z,9.85
2022-12-12T10:38:08.893Z,9.00
2022-12-12T10:40:48.130Z,8.77
2022-12-12T10:43:19.989Z,7.85
2022-12-12T10:46:05.200Z,7.72
2022-12-12T10:48:33.642Z,10.77
2022-12-12T10:51:03.498Z,8.57
2022-12-12T10:53:32.221Z,11.88
2022-12-12T10:56:03.616Z,14.02
2022-12-12T10:58:37.757Z,7.40
2022-12-12T11:01:13.361Z,9.73
2022-12-12T11:03:44.806Z,9.90
2022-12-12T11:06:15.489Z,11.52
2022-12-12T11:08:55.270Z,8.30
2022-12-12T11:11:24.759Z,8.25
2022-12-12T11:13:53.912Z,9.85
2022-12-12T11:16:25.326Z,10.85
2022-12-12T11:19:05.419Z,11.25
2022-12-12T11:21:34.791Z,9.75
2022-12-12T11:24:06.713Z,10.60
2022-12-12T11:26:40.733Z,9.80
2022-12-12T11:29:28.380Z,10.23
2022-12-12T11:31:58.155Z,13.57
2022-12-12T11:34:26.421Z,8.95
2022-12-12T11:36:53.973Z,10.73
2022-12-12T11:39:24.783Z,10.02
2022-12-12T11:42:02.671Z,8.00
2022-12-12T11:44:35.551Z,10.60
2022-12-12T11:47:26.866Z,9.10
2022-12-12T11:49:55.516Z,9.90
2022-12-12T11:52:24.300Z,10.25
2022-12-12T11:54:52.759Z,9.80
2022-12-12T11:57:38.167Z,8.18
2022-12-12T12:00:12.783Z,7.45
2022-12-12T12:03:04.011Z,8.10
2022-12-12T12:05:40.190Z,9.48
2022-12-12T12:08:17.898Z,15.05
2022-12-12T12:10:57.913Z,7.63
2022-12-12T12:13:38.853Z,8.88
2022-12-12T12:16:16.313Z,11.07
2022-12-12T12:18:56.714Z,9.77
2022-12-12T12:21:29.886Z,10.95
2022-12-12T12:24:16.217Z,9.45
2022-12-12T12:26:50.485Z,8.77
2022-12-12T12:29:39.133Z,9.20
2022-12-12T12:32:14.111Z,10.40
2022-12-12T12:34:55.098Z,9.65
2022-12-12T12:37:35.525Z,9.88
2022-12-12T12:40:14.681Z,11.05
2022-12-12T12:42:57.183Z,9.43
2022-12-12T12:45:46.010Z,10.25
2022-12-12T12:48:19.594Z,16.35
2022-12-12T12:50:52.920Z,14.07
2022-12-12T12:53:30.115Z,14.43
2022-12-12T12:56:01.100Z,9.02
2022-12-12T12:58:31.185Z,9.88
2022-12-12T13:01:02.934Z,9.73
2022-12-12T13:03:38.102Z,11.57
2022-12-12T13:06:15.644Z,11.30
2022-12-12T13:08:51.246Z,10.38
2022-12-12T13:11:22.744Z,14.73
2022-12-12T13:13:52.077Z,11.20
2022-12-12T13:16:22.599Z,13.52
2022-12-12T13:19:01.636Z,10.45
2022-12-12T13:21:36.021Z,11.40
2022-12-12T13:24:10.013Z,11.48
2022-12-12T13:26:44.956Z,11.40
2022-12-12T13:29:32.477Z,11.65
2022-12-12T13:32:28.761Z,14.02
2022-12-12T13:34:59.892Z,11.18
2022-12-12T13:37:32.425Z,12.30
2022-12-12T13:40:01.575Z,13.73
2022-12-12T13:42:52.661Z,14.38
2022-12-12T13:45:44.974Z,13.88
2022-12-12T13:48:46.878Z,12.40
2022-12-12T13:51:35.330Z,15.98
2022-12-12T13:54:39.699Z,12.65
2022-12-12T13:57:12.981Z,15.50
2022-12-12T14:00:07.878Z,13.45
2022-12-12T14:02:44.383Z,14.77
2022-12-12T14:05:14.021Z,11.55
2022-12-12T14:07:48.808Z,24.60
2022-12-12T14:10:22.145Z,14.70
2022-12-12T14:12:50.807Z,16.10
2022-12-12T14:15:23.309Z,32.33
2022-12-12T14:17:58.517Z,46.33
2022-12-12T14:20:29.304Z,30.27
2022-12-12T14:23:24.761Z,16.80
2022-12-12T14:25:52.006Z,11.95
2022-12-12T14:28:22.780Z,18.92
2022-12-12T14:30:57.014Z,18.08
2022-12-12T14:33:53.928Z,15.95
2022-12-12T14:36:58.554Z,18.50
2022-12-12T14:39:48.597Z,15.93
2022-12-12T14:42:23.070Z,17.20
2022-12-12T14:44:51.472Z,17.23
2022-12-12T14:47:18.529Z,17.25
2022-12-12T14:49:45.834Z,17.35
2022-12-12T14:52:17.294Z,17.90
2022-12-12T14:54:45.255Z,18.13
2022-12-12T14:57:20.136Z,39.83
2022-12-12T14:59:47.744Z,20.40
2022-12-12T15:02:20.951Z,17.15
2022-12-12T15:04:58.047Z,15.50
2022-12-12T15:07:28.990Z,17.60
2022-12-12T15:09:56.261Z,17.23
2022-12-12T15:12:25.356Z,18.23
2022-12-12T15:14:54.953Z,15.32
2022-12-12T15:17:27.420Z,15.23
2022-12-12T15:19:57.601Z,17.60
2022-12-12T15:22:26.646Z,19.58
2022-12-12T15:24:54.735Z,16.15
2022-12-12T15:27:27.337Z,18.52
2022-12-12T15:29:55.004Z,23.00
2022-12-12T15:32:25.721Z,21.38
2022-12-12T15:35:00.966Z,27.65
2022-12-12T15:37:31.137Z,17.67
2022-12-12T15:40:17.737Z,19.98
2022-12-12T15:42:47.483Z,16.77
2022-12-12T15:45:19.850Z,16.80
2022-12-12T15:47:48.514Z,17.88
2022-12-12T15:50:19.249Z,20.92
2022-12-12T15:52:47.515Z,27.33
2022-12-12T15:55:20.037Z,22.95
2022-12-12T15:57:49.836Z,30.00
2022-12-12T16:00:32.195Z,29.08
2022-12-12T16:03:18.501Z,30.02
2022-12-12T16:05:57.859Z,34.47
2022-12-12T16:08:39.102Z,30.83
2022-12-12T16:11:22.039Z,33.47
2022-12-12T16:13:49.125Z,34.15
2022-12-12T16:16:38.795Z,28.85
2022-12-12T16:19:24.766Z,31.08
2022-12-12T16:21:51.909Z,29.42
2022-12-12T16:24:22.462Z,35.72
2022-12-12T16:26:50.226Z,36.53
2022-12-12T16:29:17.271Z,48.40
2022-12-12T16:31:45.485Z,29.33
2022-12-12T16:34:13.918Z,30.63
2022-12-12T16:36:42.369Z,29.63
2022-12-12T16:39:10.599Z,32.60
2022-12-12T16:41:38.583Z,33.17
2022-12-12T16:44:05.706Z,36.90
2022-12-12T16:46:32.625Z,40.75
2022-12-12T16:49:04.534Z,33.90
2022-12-12T16:51:35.216Z,34.22
2022-12-12T16:54:02.481Z,32.92
2022-12-12T16:56:29.637Z,29.98
2022-12-12T16:58:57.154Z,28.17
2022-12-12T17:01:24.243Z,23.80
2022-12-12T17:03:51.606Z,22.90
2022-12-12T17:06:18.659Z,23.35
2022-12-12T17:08:47.445Z,23.02
2022-12-12T17:11:14.576Z,24.05
2022-12-12T17:13:46.258Z,20.85
2022-12-12T17:16:13.360Z,19.88
2022-12-12T17:18:40.486Z,18.02
2022-12-12T17:21:07.700Z,23.80
2022-12-12T17:23:35.067Z,21.35
2022-12-12T17:26:04.929Z,20.88
2022-12-12T17:28:33.266Z,19.05
2022-12-12T17:31:00.415Z,21.65
2022-12-12T17:33:27.773Z,22.33
2022-12-12T17:35:59.394Z,22.38
2022-12-12T17:38:27.112Z,20.75
2022-12-12T17:40:56.686Z,25.25
2022-12-12T17:43:25.789Z,24.10
2022-12-12T17:46:01.871Z,20.38
2022-12-12T17:48:30.635Z,20.50
2022-12-12T17:50:59.303Z,20.73
2022-12-12T17:53:26.790Z,20.27
2022-12-12T17:56:01.837Z,21.25
2022-12-12T17:58:38.579Z,19.25
2022-12-12T18:01:16.297Z,20.75
2022-12-12T18:03:44.284Z,18.83
2022-12-12T18:06:13.800Z,19.88
2022-12-12T18:08:41.679Z,19.27
2022-12-12T18:11:10.112Z,21.92
2022-12-12T18:13:39.964Z,20.67
2022-12-12T18:16:08.631Z,26.65
2022-12-12T18:18:36.035Z,19.55
2022-12-12T18:21:04.633Z,20.30
2022-12-12T18:23:31.644Z,20.77
2022-12-12T18:26:02.718Z,18.90
2022-12-12T18:28:29.872Z,20.63
2022-12-12T18:30:58.353Z,17.67
2022-12-12T18:33:25.357Z,16.75
2022-12-12T18:36:00.398Z,15.93
2022-12-12T18:38:27.400Z,17.63
2022-12-12T18:40:54.528Z,11.30
2022-12-12T18:43:21.613Z,10.35
2022-12-12T18:45:48.838Z,10.68
2022-12-12T18:48:17.259Z,9.18
2022-12-12T18:50:44.195Z,10.50
2022-12-12T18:53:11.476Z,11.70
2022-12-12T18:55:40.977Z,10.23
2022-12-12T18:58:08.075Z,9.55
2022-12-12T19:00:35.218Z,8.63
2022-12-12T19:03:02.242Z,8.98
2022-12-12T19:05:30.973Z,9.10
2022-12-12T19:07:57.935Z,9.05
2022-12-12T19:10:24.893Z,8.50
2022-12-12T19:12:52.311Z,9.23
2022-12-12T19:15:19.232Z,8.35
2022-12-12T19:17:46.258Z,8.55
2022-12-12T19:20:13.768Z,7.80
2022-12-12T19:22:46.687Z,9.25
2022-12-12T19:25:14.891Z,5.80
2022-12-12T19:27:42.282Z,8.75
2022-12-12T19:30:10.818Z,7.90
2022-12-12T19:32:37.998Z,7.07
2022-12-12T19:35:05.962Z,8.32
2022-12-12T19:37:33.043Z,9.00
2022-12-12T19:40:01.674Z,6.95
2022-12-12T19:42:28.859Z,5.53
2022-12-12T19:44:55.801Z,7.20
2022-12-12T19:47:22.839Z,5.40
2022-12-12T19:49:49.966Z,9.00
2022-12-12T19:52:16.974Z,8.45
2022-12-12T19:54:43.943Z,9.32
2022-12-12T19:57:12.332Z,7.85
2022-12-12T19:59:39.517Z,9.18
2022-12-12T20:02:07.288Z,8.38
2022-12-12T20:04:34.293Z,6.82
2022-12-12T20:07:01.253Z,6.68
2022-12-12T20:09:29.605Z,9.70
2022-12-12T20:12:00.392Z,9.35
2022-12-12T20:14:30.367Z,15.95
2022-12-12T20:16:57.743Z,6.35
2022-12-12T20:19:27.147Z,6.95
2022-12-12T20:22:03.765Z,9.07
2022-12-12T20:24:31.899Z,6.93
2022-12-12T20:26:59.929Z,6.45
2022-12-12T20:29:28.498Z,7.22
2022-12-12T20:31:55.548Z,7.03
2022-12-12T20:34:24.629Z,6.25
2022-12-12T20:36:52.750Z,7.43
2022-12-12T20:39:22.087Z,6.85
2022-12-12T20:41:50.613Z,4.35
2022-12-12T20:44:17.830Z,5.20
2022-12-12T20:46:46.970Z,5.10
2022-12-12T20:49:16.006Z,2.95
2022-12-12T20:51:59.385Z,4.60
2022-12-12T20:54:28.317Z,4.43
2022-12-12T20:56:56.092Z,2.85
2022-12-12T20:59:23.842Z,3.90
2022-12-12T21:01:52.504Z,1.30
2022-12-12T21:04:20.044Z,1.15
2022-12-12T21:06:51.505Z,1.65
2022-12-12T21:09:24.376Z,1.60
2022-12-12T21:11:52.869Z,1.08
2022-12-12T21:14:19.891Z,1.27
2022-12-12T21:16:46.885Z,0.50
2022-12-12T21:19:16.264Z,0.60
2022-12-12T21:21:43.617Z,0.50
2022-12-12T21:24:11.997Z,0.70
2022-12-12T21:26:39.038Z,0.50
2022-12-12T21:29:06.339Z,0.50
2022-12-12T21:31:36.468Z,0.57
2022-12-12T21:34:04.605Z,0.57
2022-12-12T21:36:33.678Z,0.40
2022-12-12T21:39:02.470Z,0.40
2022-12-12T21:41:30.216Z,0.38
2022-12-12T21:43:59.577Z,0.30
2022-12-12T21:46:28.685Z,0.32
2022-12-12T21:49:14.558Z,1.23
2022-12-12T21:51:43.617Z,0.30
2022-12-12T21:54:12.517Z,0.32
2022-12-12T21:56:40.559Z,0.40
2022-12-12T21:59:08.270Z,0.30
2022-12-12T22:01:35.624Z,0.40
2022-12-12T22:04:03.259Z,1.58
2022-12-12T22:06:32.391Z,0.40
2022-12-12T22:09:03.738Z,0.50
2022-12-12T22:11:40.262Z,0.70
2022-12-12T22:14:16.439Z,0.60
2022-12-12T22:16:43.445Z,0.60
2022-12-12T22:19:12.094Z,0.70
2022-12-12T22:21:39.309Z,0.85
2022-12-12T22:24:08.510Z,0.50
2022-12-12T22:26:36.937Z,0.60
2022-12-12T22:29:06.285Z,0.60
2022-12-12T22:31:37.433Z,4.38
2022-12-12T22:34:05.975Z,0.60
2022-12-12T22:36:34.642Z,0.70
2022-12-12T22:39:02.300Z,0.50
2022-12-12T22:41:30.683Z,0.50
2022-12-12T22:43:59.692Z,0.70
2022-12-12T22:46:27.613Z,0.73
2022-12-12T22:48:56.449Z,1.15
2022-12-12T22:51:25.666Z,0.88
2022-12-12T22:53:55.258Z,0.70
2022-12-12T22:56:22.450Z,0.68
2022-12-12T22:58:50.877Z,0.93
2022-12-12T23:01:20.478Z,0.70
2022-12-12T23:03:47.986Z,0.90
2022-12-12T23:06:17.051Z,0.60
2022-12-12T23:08:49.142Z,1.70
2022-12-12T23:11:17.497Z,0.85
2022-12-12T23:13:45.505Z,0.95
2022-12-12T23:16:17.611Z,1.20
2022-12-12T23:18:45.875Z,1.15
2022-12-12T23:21:17.194Z,0.80
2022-12-12T23:23:45.178Z,0.90
2022-12-12T23:26:13.813Z,0.80
2022-12-12T23:28:41.438Z,0.90
2022-12-12T23:31:10.640Z,0.80
2022-12-12T23:33:39.720Z,1.05
2022-12-12T23:36:08.832Z,0.85
2022-12-12T23:38:36.545Z,0.90
2022-12-12T23:41:04.309Z,0.77
2022-12-12T23:43:31.657Z,1.00
2022-12-12T23:46:01.617Z,1.13
2022-12-12T23:48:29.308Z,1.17
2022-12-12T23:50:57.789Z,1.20
2022-12-12T23:53:24.750Z,1.58
2022-12-12T23:55:52.197Z,1.10
2022-12-12T23:58:19.476Z,1.30
